sensor_id;sensor_type;location;lat;lon;timestamp;pressure;altitude;pressure_sealevel;temperature;humidity
66857;BME280;53766;50.280;19.160;2023-02-15T00:01:39;100099.97;;;15.94;44.54
66857;BME280;53766;50.280;19.160;2023-02-15T00:04:07;100102.63;;;15.94;44.46
66857;BME280;53766;50.280;19.160;2023-02-15T00:06:35;100104.41;;;15.94;44.48
66857;BME280;53766;50.280;19.160;2023-02-15T00:09:02;100103.59;;;15.93;44.48
66857;BME280;53766;50.280;19.160;2023-02-15T00:11:30;100099.97;;;15.94;44.49
66857;BME280;53766;50.280;19.160;2023-02-15T00:14:14;100098.28;;;15.93;44.35
66857;BME280;53766;50.280;19.160;2023-02-15T00:16:42;100099.97;;;15.94;44.48
66857;BME280;53766;50.280;19.160;2023-02-15T00:19:10;100096.63;;;15.92;44.47
66857;BME280;53766;50.280;19.160;2023-02-15T00:21:38;100092.97;;;15.93;44.43
66857;BME280;53766;50.280;19.160;2023-02-15T00:24:06;100086.81;;;15.93;44.30
66857;BME280;53766;50.280;19.160;2023-02-15T00:26:35;100083.16;;;15.94;44.53
66857;BME280;53766;50.280;19.160;2023-02-15T00:29:02;100074.53;;;15.92;44.56
66857;BME280;53766;50.280;19.160;2023-02-15T00:31:31;100077.03;;;15.93;44.57
66857;BME280;53766;50.280;19.160;2023-02-15T00:36:29;100064.72;;;15.92;44.39
66857;BME280;53766;50.280;19.160;2023-02-15T00:38:57;100069.22;;;15.92;44.44
66857;BME280;53766;50.280;19.160;2023-02-15T00:41:24;100066.56;;;15.92;44.37
66857;BME280;53766;50.280;19.160;2023-02-15T00:43:51;100062.22;;;15.91;44.45
66857;BME280;53766;50.280;19.160;2023-02-15T00:46:19;100056.06;;;15.90;44.39
66857;BME280;53766;50.280;19.160;2023-02-15T00:48:46;100057.72;;;15.91;44.51
66857;BME280;53766;50.280;19.160;2023-02-15T00:51:13;100059.69;;;15.89;44.47
66857;BME280;53766;50.280;19.160;2023-02-15T00:53:40;100053.56;;;15.89;44.53
66857;BME280;53766;50.280;19.160;2023-02-15T00:56:08;100049.06;;;15.89;44.43
66857;BME280;53766;50.280;19.160;2023-02-15T00:58:35;100051.91;;;15.88;44.62
66857;BME280;53766;50.280;19.160;2023-02-15T01:01:10;100048.09;;;15.90;44.56
66857;BME280;53766;50.280;19.160;2023-02-15T01:03:37;100043.75;;;15.89;44.34
66857;BME280;53766;50.280;19.160;2023-02-15T01:06:05;100046.41;;;15.89;44.39
66857;BME280;53766;50.280;19.160;2023-02-15T01:08:32;100043.75;;;15.89;44.58
66857;BME280;53766;50.280;19.160;2023-02-15T01:11:07;100057.03;;;15.89;44.55
66857;BME280;53766;50.280;19.160;2023-02-15T01:13:35;100052.72;;;15.88;44.56
66857;BME280;53766;50.280;19.160;2023-02-15T01:16:02;100052.72;;;15.88;44.39
66857;BME280;53766;50.280;19.160;2023-02-15T01:18:31;100051.91;;;15.88;44.58
66857;BME280;53766;50.280;19.160;2023-02-15T01:20:58;100047.41;;;15.88;44.52
66857;BME280;53766;50.280;19.160;2023-02-15T01:23:25;100037.75;;;15.87;44.42
66857;BME280;53766;50.280;19.160;2023-02-15T01:25:53;100044.91;;;15.87;44.51
66857;BME280;53766;50.280;19.160;2023-02-15T01:28:20;100041.28;;;15.88;44.46
66857;BME280;53766;50.280;19.160;2023-02-15T01:30:47;100030.63;;;15.88;44.39
66857;BME280;53766;50.280;19.160;2023-02-15T01:33:15;100040.41;;;15.87;44.38
66857;BME280;53766;50.280;19.160;2023-02-15T01:35:45;100035.09;;;15.87;44.24
66857;BME280;53766;50.280;19.160;2023-02-15T01:38:13;100035.09;;;15.87;44.29
66857;BME280;53766;50.280;19.160;2023-02-15T01:40:41;100028.13;;;15.86;44.46
66857;BME280;53766;50.280;19.160;2023-02-15T01:43:09;100028.13;;;15.86;44.42
66857;BME280;53766;50.280;19.160;2023-02-15T01:45:37;100023.63;;;15.87;44.46
66857;BME280;53766;50.280;19.160;2023-02-15T01:48:05;100020.16;;;15.86;44.27
66857;BME280;53766;50.280;19.160;2023-02-15T01:50:37;100017.50;;;15.86;44.33
66857;BME280;53766;50.280;19.160;2023-02-15T01:55:52;100009.66;;;15.84;44.44
66857;BME280;53766;50.280;19.160;2023-02-15T01:58:21;100008.69;;;15.86;44.32
66857;BME280;53766;50.280;19.160;2023-02-15T02:00:49;99999.88;;;15.85;44.25
66857;BME280;53766;50.280;19.160;2023-02-15T02:03:16;99999.03;;;15.84;44.39
66857;BME280;53766;50.280;19.160;2023-02-15T02:05:44;100002.38;;;15.87;44.47
66857;BME280;53766;50.280;19.160;2023-02-15T02:08:12;99996.38;;;15.84;44.40
66857;BME280;53766;50.280;19.160;2023-02-15T02:10:39;99983.94;;;15.85;44.41
66857;BME280;53766;50.280;19.160;2023-02-15T02:13:06;99982.28;;;15.84;44.34
66857;BME280;53766;50.280;19.160;2023-02-15T02:15:44;99989.41;;;15.83;44.35
66857;BME280;53766;50.280;19.160;2023-02-15T02:18:21;99982.28;;;15.84;44.38
66857;BME280;53766;50.280;19.160;2023-02-15T02:20:59;99984.25;;;15.82;44.43
66857;BME280;53766;50.280;19.160;2023-02-15T02:26:26;99976.97;;;15.84;44.43
66857;BME280;53766;50.280;19.160;2023-02-15T02:34:16;99971.78;;;15.82;44.55
66857;BME280;53766;50.280;19.160;2023-02-15T02:36:52;99964.81;;;15.81;44.32
66857;BME280;53766;50.280;19.160;2023-02-15T02:39:30;99967.47;;;15.81;44.52
66857;BME280;53766;50.280;19.160;2023-02-15T02:42:01;99958.50;;;15.82;44.41
66857;BME280;53766;50.280;19.160;2023-02-15T02:44:35;99954.03;;;15.83;44.49
66857;BME280;53766;50.280;19.160;2023-02-15T02:47:18;99953.19;;;15.82;44.41
66857;BME280;53766;50.280;19.160;2023-02-15T02:49:51;99956.00;;;15.81;44.38
66857;BME280;53766;50.280;19.160;2023-02-15T02:52:39;99945.22;;;15.82;44.30
66857;BME280;53766;50.280;19.160;2023-02-15T02:57:39;99927.75;;;15.80;44.26
66857;BME280;53766;50.280;19.160;2023-02-15T03:00:09;99940.06;;;15.81;44.43
66857;BME280;53766;50.280;19.160;2023-02-15T03:02:40;99939.22;;;15.80;44.46
66857;BME280;53766;50.280;19.160;2023-02-15T03:05:09;99933.06;;;15.80;44.43
66857;BME280;53766;50.280;19.160;2023-02-15T03:07:38;99934.75;;;15.81;44.44
66857;BME280;53766;50.280;19.160;2023-02-15T03:10:06;99934.91;;;15.79;44.43
66857;BME280;53766;50.280;19.160;2023-02-15T03:12:37;99941.03;;;15.80;44.51
66857;BME280;53766;50.280;19.160;2023-02-15T03:17:34;99930.56;;;15.78;44.48
66857;BME280;53766;50.280;19.160;2023-02-15T03:20:04;99934.22;;;15.77;44.36
66857;BME280;53766;50.280;19.160;2023-02-15T03:22:35;99939.38;;;15.79;44.39
66857;BME280;53766;50.280;19.160;2023-02-15T03:25:05;99935.88;;;15.78;44.32
66857;BME280;53766;50.280;19.160;2023-02-15T03:27:36;99929.72;;;15.78;44.33
66857;BME280;53766;50.280;19.160;2023-02-15T03:30:05;99933.38;;;15.77;44.32
66857;BME280;53766;50.280;19.160;2023-02-15T03:32:33;99936.72;;;15.79;44.32
66857;BME280;53766;50.280;19.160;2023-02-15T03:35:01;99937.69;;;15.78;44.49
66857;BME280;53766;50.280;19.160;2023-02-15T03:43:07;99928.06;;;15.77;44.43
66857;BME280;53766;50.280;19.160;2023-02-15T03:45:38;99938.38;;;15.80;44.28
66857;BME280;53766;50.280;19.160;2023-02-15T03:48:22;99938.69;;;15.77;44.33
66857;BME280;53766;50.280;19.160;2023-02-15T03:50:52;99936.03;;;15.77;44.51
66857;BME280;53766;50.280;19.160;2023-02-15T03:53:41;99935.88;;;15.78;44.20
66857;BME280;53766;50.280;19.160;2023-02-15T03:56:08;99937.84;;;15.76;44.28
66857;BME280;53766;50.280;19.160;2023-02-15T03:58:35;99937.00;;;15.76;44.21
66857;BME280;53766;50.280;19.160;2023-02-15T04:01:34;99937.84;;;15.76;44.27
66857;BME280;53766;50.280;19.160;2023-02-15T04:04:24;99943.31;;;15.75;44.39
66857;BME280;53766;50.280;19.160;2023-02-15T04:06:52;99940.66;;;15.75;44.35
66857;BME280;53766;50.280;19.160;2023-02-15T04:09:19;99944.97;;;15.76;44.37
66857;BME280;53766;50.280;19.160;2023-02-15T04:12:05;99940.66;;;15.75;44.29
66857;BME280;53766;50.280;19.160;2023-02-15T04:14:32;99948.47;;;15.76;44.37
66857;BME280;53766;50.280;19.160;2023-02-15T04:17:18;99949.59;;;15.74;44.44
66857;BME280;53766;50.280;19.160;2023-02-15T04:19:45;99944.16;;;15.75;44.31
66857;BME280;53766;50.280;19.160;2023-02-15T04:22:31;99946.94;;;15.74;44.28
66857;BME280;53766;50.280;19.160;2023-02-15T04:25:17;99943.31;;;15.75;44.29
66857;BME280;53766;50.280;19.160;2023-02-15T04:27:45;99938.97;;;15.74;44.43
66857;BME280;53766;50.280;19.160;2023-02-15T04:30:14;99942.63;;;15.73;44.20
66857;BME280;53766;50.280;19.160;2023-02-15T04:32:41;99941.50;;;15.75;44.31
66857;BME280;53766;50.280;19.160;2023-02-15T04:35:08;99935.63;;;15.72;44.24
66857;BME280;53766;50.280;19.160;2023-02-15T04:37:36;99937.31;;;15.73;44.36
66857;BME280;53766;50.280;19.160;2023-02-15T04:40:04;99934.66;;;15.73;44.26
66857;BME280;53766;50.280;19.160;2023-02-15T04:42:32;99943.47;;;15.73;44.38
66857;BME280;53766;50.280;19.160;2023-02-15T04:45:00;99950.47;;;15.74;44.12
66857;BME280;53766;50.280;19.160;2023-02-15T04:47:27;99938.97;;;15.74;44.39
66857;BME280;53766;50.280;19.160;2023-02-15T04:49:55;99941.81;;;15.72;44.29
66857;BME280;53766;50.280;19.160;2023-02-15T04:52:24;99937.31;;;15.73;44.44
66857;BME280;53766;50.280;19.160;2023-02-15T04:54:51;99935.63;;;15.72;44.27
66857;BME280;53766;50.280;19.160;2023-02-15T04:57:19;99933.13;;;15.70;44.27
66857;BME280;53766;50.280;19.160;2023-02-15T04:59:46;99950.75;;;15.71;44.30
66857;BME280;53766;50.280;19.160;2023-02-15T05:02:13;99939.25;;;15.71;44.42
66857;BME280;53766;50.280;19.160;2023-02-15T05:04:41;99947.22;;;15.71;44.20
66857;BME280;53766;50.280;19.160;2023-02-15T05:07:08;99940.13;;;15.71;44.38
66857;BME280;53766;50.280;19.160;2023-02-15T05:09:35;99935.78;;;15.70;44.39
66857;BME280;53766;50.280;19.160;2023-02-15T05:12:02;99928.63;;;15.71;44.13
66857;BME280;53766;50.280;19.160;2023-02-15T05:14:29;99932.25;;;15.70;44.21
66857;BME280;53766;50.280;19.160;2023-02-15T05:16:57;99930.59;;;15.69;44.30
66857;BME280;53766;50.280;19.160;2023-02-15T05:19:28;99935.09;;;15.68;44.49
66857;BME280;53766;50.280;19.160;2023-02-15T05:21:55;99938.56;;;15.69;44.25
66857;BME280;53766;50.280;19.160;2023-02-15T05:24:22;99928.91;;;15.68;44.22
66857;BME280;53766;50.280;19.160;2023-02-15T05:27:10;99934.09;;;15.69;44.36
66857;BME280;53766;50.280;19.160;2023-02-15T05:29:56;99945.72;;;15.68;44.27
66857;BME280;53766;50.280;19.160;2023-02-15T05:32:24;99944.72;;;15.69;44.25
66857;BME280;53766;50.280;19.160;2023-02-15T05:34:51;99941.50;;;15.66;44.23
66857;BME280;53766;50.280;19.160;2023-02-15T05:37:18;99934.41;;;15.66;44.25
66857;BME280;53766;50.280;19.160;2023-02-15T05:39:45;99940.69;;;15.65;44.22
66857;BME280;53766;50.280;19.160;2023-02-15T05:42:12;99940.69;;;15.65;44.43
66857;BME280;53766;50.280;19.160;2023-02-15T05:44:40;99942.66;;;15.63;44.18
66857;BME280;53766;50.280;19.160;2023-02-15T05:47:07;99944.47;;;15.62;44.30
66857;BME280;53766;50.280;19.160;2023-02-15T05:49:34;99936.50;;;15.62;44.26
66857;BME280;53766;50.280;19.160;2023-02-15T05:52:02;99940.16;;;15.61;44.17
66857;BME280;53766;50.280;19.160;2023-02-15T05:54:29;99942.81;;;15.61;44.29
66857;BME280;53766;50.280;19.160;2023-02-15T05:56:56;99941.13;;;15.60;44.29
66857;BME280;53766;50.280;19.160;2023-02-15T05:59:24;99943.78;;;15.60;44.18
66857;BME280;53766;50.280;19.160;2023-02-15T06:01:51;99942.13;;;15.59;44.33
66857;BME280;53766;50.280;19.160;2023-02-15T06:04:18;99934.16;;;15.59;44.20
66857;BME280;53766;50.280;19.160;2023-02-15T06:06:45;99940.16;;;15.61;44.40
66857;BME280;53766;50.280;19.160;2023-02-15T06:09:13;99940.16;;;15.61;44.84
66857;BME280;53766;50.280;19.160;2023-02-15T06:11:40;99940.31;;;15.60;44.83
66857;BME280;53766;50.280;19.160;2023-02-15T06:14:07;99938.47;;;15.60;45.08
66857;BME280;53766;50.280;19.160;2023-02-15T06:16:34;99932.34;;;15.60;45.02
66857;BME280;53766;50.280;19.160;2023-02-15T06:19:02;99938.63;;;15.59;45.03
66857;BME280;53766;50.280;19.160;2023-02-15T06:21:29;99940.44;;;15.58;45.12
66857;BME280;53766;50.280;19.160;2023-02-15T06:23:58;99939.63;;;15.58;45.31
66857;BME280;53766;50.280;19.160;2023-02-15T06:26:25;99940.44;;;15.58;45.14
66857;BME280;53766;50.280;19.160;2023-02-15T06:28:53;99945.75;;;15.58;45.44
66857;BME280;53766;50.280;19.160;2023-02-15T06:31:20;99952.75;;;15.59;45.32
66857;BME280;53766;50.280;19.160;2023-02-15T06:33:47;99948.41;;;15.58;45.40
66857;BME280;53766;50.280;19.160;2023-02-15T06:36:14;99951.06;;;15.58;45.42
66857;BME280;53766;50.280;19.160;2023-02-15T06:38:42;99947.44;;;15.59;45.42
66857;BME280;53766;50.280;19.160;2023-02-15T06:41:09;99951.06;;;15.58;45.67
66857;BME280;53766;50.280;19.160;2023-02-15T06:43:38;99953.72;;;15.58;45.74
66857;BME280;53766;50.280;19.160;2023-02-15T06:46:06;99956.38;;;15.58;45.64
66857;BME280;53766;50.280;19.160;2023-02-15T06:48:34;99958.06;;;15.59;45.45
66857;BME280;53766;50.280;19.160;2023-02-15T06:51:01;99955.41;;;15.59;45.54
66857;BME280;53766;50.280;19.160;2023-02-15T06:53:29;99949.41;;;15.57;45.46
66857;BME280;53766;50.280;19.160;2023-02-15T06:56:02;99945.06;;;15.56;45.38
66857;BME280;53766;50.280;19.160;2023-02-15T06:58:30;99945.06;;;15.56;45.73
66857;BME280;53766;50.280;19.160;2023-02-15T07:00:57;99947.72;;;15.56;45.41
66857;BME280;53766;50.280;19.160;2023-02-15T07:03:24;99954.72;;;15.57;45.50
66857;BME280;53766;50.280;19.160;2023-02-15T07:05:55;99939.75;;;15.56;45.43
66857;BME280;53766;50.280;19.160;2023-02-15T07:08:23;99942.41;;;15.56;45.46
66857;BME280;53766;50.280;19.160;2023-02-15T07:10:51;99938.09;;;15.55;45.52
66857;BME280;53766;50.280;19.160;2023-02-15T07:13:19;99945.06;;;15.56;45.42
66857;BME280;53766;50.280;19.160;2023-02-15T07:15:47;99935.44;;;15.55;45.35
66857;BME280;53766;50.280;19.160;2023-02-15T07:18:15;99949.69;;;15.54;45.31
66857;BME280;53766;50.280;19.160;2023-02-15T07:20:42;99942.41;;;15.56;45.49
66857;BME280;53766;50.280;19.160;2023-02-15T07:23:09;99932.09;;;15.53;45.40
66857;BME280;53766;50.280;19.160;2023-02-15T07:25:36;99928.44;;;15.54;45.31
66857;BME280;53766;50.280;19.160;2023-02-15T07:28:04;99932.78;;;15.55;45.19
66857;BME280;53766;50.280;19.160;2023-02-15T07:30:31;99934.44;;;15.56;45.33
66857;BME280;53766;50.280;19.160;2023-02-15T07:32:59;99930.13;;;15.55;45.20
66857;BME280;53766;50.280;19.160;2023-02-15T07:35:55;99938.09;;;15.55;45.31
66857;BME280;53766;50.280;19.160;2023-02-15T07:38:25;99930.13;;;15.55;45.19
66857;BME280;53766;50.280;19.160;2023-02-15T07:40:59;99923.13;;;15.54;45.24
66857;BME280;53766;50.280;19.160;2023-02-15T07:43:27;99933.75;;;15.54;45.22
66857;BME280;53766;50.280;19.160;2023-02-15T07:45:54;99934.63;;;15.55;45.08
66857;BME280;53766;50.280;19.160;2023-02-15T07:48:21;99931.09;;;15.54;45.24
66857;BME280;53766;50.280;19.160;2023-02-15T07:50:50;99924.81;;;15.55;44.88
66857;BME280;53766;50.280;19.160;2023-02-15T07:53:18;99924.00;;;15.55;45.14
66857;BME280;53766;50.280;19.160;2023-02-15T07:55:45;99924.81;;;15.55;45.03
66857;BME280;53766;50.280;19.160;2023-02-15T07:58:12;99924.81;;;15.55;45.11
66857;BME280;53766;50.280;19.160;2023-02-15T08:00:39;99924.81;;;15.55;45.09
66857;BME280;53766;50.280;19.160;2023-02-15T08:03:28;99921.47;;;15.53;44.87
66857;BME280;53766;50.280;19.160;2023-02-15T08:05:56;99910.88;;;15.53;45.06
66857;BME280;53766;50.280;19.160;2023-02-15T08:08:26;99912.50;;;15.54;45.05
66857;BME280;53766;50.280;19.160;2023-02-15T08:10:57;99906.25;;;15.55;44.98
66857;BME280;53766;50.280;19.160;2023-02-15T08:13:45;99912.50;;;15.54;44.72
66857;BME280;53766;50.280;19.160;2023-02-15T08:18:48;99898.28;;;15.55;44.79
66857;BME280;53766;50.280;19.160;2023-02-15T08:21:15;99904.72;;;15.53;44.89
66857;BME280;53766;50.280;19.160;2023-02-15T08:23:42;99900.25;;;15.53;44.74
66857;BME280;53766;50.280;19.160;2023-02-15T08:26:10;99901.06;;;15.54;44.89
66857;BME280;53766;50.280;19.160;2023-02-15T08:28:37;99902.59;;;15.56;44.73
66857;BME280;53766;50.280;19.160;2023-02-15T08:31:09;99904.28;;;15.57;44.84
66857;BME280;53766;50.280;19.160;2023-02-15T08:33:38;99904.97;;;15.59;44.73
66857;BME280;53766;50.280;19.160;2023-02-15T08:36:06;99907.44;;;15.61;44.88
66857;BME280;53766;50.280;19.160;2023-02-15T08:38:34;99904.09;;;15.59;44.76
66857;BME280;53766;50.280;19.160;2023-02-15T08:43:38;99898.66;;;15.60;44.69
66857;BME280;53766;50.280;19.160;2023-02-15T08:46:06;99894.16;;;15.61;44.76
66857;BME280;53766;50.280;19.160;2023-02-15T08:48:34;99898.50;;;15.62;44.73
66857;BME280;53766;50.280;19.160;2023-02-15T08:51:07;99896.53;;;15.64;44.67
66857;BME280;53766;50.280;19.160;2023-02-15T08:53:36;99894.03;;;15.62;44.60
66857;BME280;53766;50.280;19.160;2023-02-15T08:56:03;99887.75;;;15.63;44.81
66857;BME280;53766;50.280;19.160;2023-02-15T08:58:31;99885.75;;;15.66;44.75
66857;BME280;53766;50.280;19.160;2023-02-15T09:00:58;99884.78;;;15.67;44.68
66857;BME280;53766;50.280;19.160;2023-02-15T09:03:26;99886.44;;;15.68;44.52
66857;BME280;53766;50.280;19.160;2023-02-15T09:05:58;99872.47;;;15.66;44.57
66857;BME280;53766;50.280;19.160;2023-02-15T09:08:26;99874.97;;;15.67;44.56
66857;BME280;53766;50.280;19.160;2023-02-15T09:10:53;99880.97;;;15.69;44.48
66857;BME280;53766;50.280;19.160;2023-02-15T09:13:22;99876.50;;;15.70;44.63
66857;BME280;53766;50.280;19.160;2023-02-15T09:15:50;99871.06;;;15.71;44.54
66857;BME280;53766;50.280;19.160;2023-02-15T09:18:17;99874.56;;;15.72;44.39
66857;BME280;53766;50.280;19.160;2023-02-15T09:20:44;99871.75;;;15.73;44.45
66857;BME280;53766;50.280;19.160;2023-02-15T09:23:12;99876.91;;;15.75;44.29
66857;BME280;53766;50.280;19.160;2023-02-15T09:25:52;99868.94;;;15.75;44.32
66857;BME280;53766;50.280;19.160;2023-02-15T09:28:20;99863.47;;;15.76;44.28
66857;BME280;53766;50.280;19.160;2023-02-15T09:30:47;99865.16;;;15.77;44.33
66857;BME280;53766;50.280;19.160;2023-02-15T09:33:15;99853.38;;;15.80;44.17
66857;BME280;53766;50.280;19.160;2023-02-15T09:35:41;99853.38;;;15.80;44.17
66857;BME280;53766;50.280;19.160;2023-02-15T09:38:09;99844.44;;;15.81;44.18
66857;BME280;53766;50.280;19.160;2023-02-15T09:40:40;99847.78;;;15.83;44.21
66857;BME280;53766;50.280;19.160;2023-02-15T09:43:24;99837.97;;;15.83;44.18
66857;BME280;53766;50.280;19.160;2023-02-15T09:48:41;99840.47;;;15.85;44.19
66857;BME280;53766;50.280;19.160;2023-02-15T09:51:15;99831.53;;;15.86;44.03
66857;BME280;53766;50.280;19.160;2023-02-15T09:56:23;99828.88;;;15.86;44.06
66857;BME280;53766;50.280;19.160;2023-02-15T09:59:02;99833.19;;;15.87;44.09
66857;BME280;53766;50.280;19.160;2023-02-15T10:01:36;99825.06;;;15.89;43.96
66857;BME280;53766;50.280;19.160;2023-02-15T10:19:55;99811.31;;;15.93;43.97
66857;BME280;53766;50.280;19.160;2023-02-15T10:27:49;99809.34;;;15.95;43.99
66857;BME280;53766;50.280;19.160;2023-02-15T10:30:18;99797.06;;;15.94;43.93
66857;BME280;53766;50.280;19.160;2023-02-15T10:33:14;99794.22;;;15.96;43.98
66857;BME280;53766;50.280;19.160;2023-02-15T10:35:41;99799.25;;;15.99;43.75
66857;BME280;53766;50.280;19.160;2023-02-15T10:38:21;99790.59;;;15.97;43.86
66857;BME280;53766;50.280;19.160;2023-02-15T10:46:21;99779.13;;;15.96;43.93
66857;BME280;53766;50.280;19.160;2023-02-15T10:48:57;99784.44;;;15.96;43.85
66857;BME280;53766;50.280;19.160;2023-02-15T10:51:40;99779.97;;;15.97;43.89
66857;BME280;53766;50.280;19.160;2023-02-15T11:06:53;99748.59;;;16.00;43.93
66857;BME280;53766;50.280;19.160;2023-02-15T11:09:22;99757.41;;;16.01;43.80
66857;BME280;53766;50.280;19.160;2023-02-15T11:11:51;99759.25;;;16.00;43.74
66857;BME280;53766;50.280;19.160;2023-02-15T11:17:19;99755.56;;;16.01;43.89
66857;BME280;53766;50.280;19.160;2023-02-15T11:22:22;99745.78;;;16.02;43.80
66857;BME280;53766;50.280;19.160;2023-02-15T11:24:51;99744.94;;;16.01;43.97
66857;BME280;53766;50.280;19.160;2023-02-15T11:27:20;99739.31;;;16.04;43.88
66857;BME280;53766;50.280;19.160;2023-02-15T11:32:40;99727.03;;;16.03;43.93
66857;BME280;53766;50.280;19.160;2023-02-15T11:40:19;99734.00;;;16.04;43.79
66857;BME280;53766;50.280;19.160;2023-02-15T11:42:49;99725.88;;;16.06;43.82
66857;BME280;53766;50.280;19.160;2023-02-15T11:45:30;99719.72;;;16.06;43.92
66857;BME280;53766;50.280;19.160;2023-02-15T11:47:58;99721.38;;;16.07;43.72
66857;BME280;53766;50.280;19.160;2023-02-15T11:50:30;99716.91;;;16.07;43.83
66857;BME280;53766;50.280;19.160;2023-02-15T11:53:02;99721.38;;;16.07;43.80
66857;BME280;53766;50.280;19.160;2023-02-15T11:55:31;99713.25;;;16.08;43.79
66857;BME280;53766;50.280;19.160;2023-02-15T11:58:09;99714.09;;;16.09;43.71
66857;BME280;53766;50.280;19.160;2023-02-15T12:00:42;99701.81;;;16.08;43.93
66857;BME280;53766;50.280;19.160;2023-02-15T12:03:21;99707.78;;;16.10;43.75
66857;BME280;53766;50.280;19.160;2023-02-15T12:05:53;99705.13;;;16.10;43.82
66857;BME280;53766;50.280;19.160;2023-02-15T12:08:23;99693.69;;;16.09;43.79
66857;BME280;53766;50.280;19.160;2023-02-15T12:10:53;99690.84;;;16.11;43.90
66857;BME280;53766;50.280;19.160;2023-02-15T12:13:24;99690.03;;;16.10;43.71
66857;BME280;53766;50.280;19.160;2023-02-15T12:15:55;99682.88;;;16.11;43.92
66857;BME280;53766;50.280;19.160;2023-02-15T12:21:00;99678.22;;;16.13;43.75
66857;BME280;53766;50.280;19.160;2023-02-15T12:23:30;99690.84;;;16.11;43.79
66857;BME280;53766;50.280;19.160;2023-02-15T12:25:59;99685.53;;;16.11;43.71
66857;BME280;53766;50.280;19.160;2023-02-15T12:28:30;99675.91;;;16.10;43.99
66857;BME280;53766;50.280;19.160;2023-02-15T12:30:58;99677.56;;;16.11;43.90
66857;BME280;53766;50.280;19.160;2023-02-15T12:33:30;99678.22;;;16.13;43.88
66857;BME280;53766;50.280;19.160;2023-02-15T12:36:03;99667.59;;;16.13;43.95
66857;BME280;53766;50.280;19.160;2023-02-15T12:38:31;99665.94;;;16.12;43.83
66857;BME280;53766;50.280;19.160;2023-02-15T12:41:00;99677.25;;;16.14;43.82
66857;BME280;53766;50.280;19.160;2023-02-15T12:43:38;99663.28;;;16.12;43.76
66857;BME280;53766;50.280;19.160;2023-02-15T12:46:24;99663.13;;;16.13;43.86
66857;BME280;53766;50.280;19.160;2023-02-15T12:49:27;99657.78;;;16.13;43.85
66857;BME280;53766;50.280;19.160;2023-02-15T12:54:31;99643.53;;;16.14;43.69
66857;BME280;53766;50.280;19.160;2023-02-15T12:57:01;99635.56;;;16.14;43.83
66857;BME280;53766;50.280;19.160;2023-02-15T12:59:49;99634.72;;;16.14;43.88
66857;BME280;53766;50.280;19.160;2023-02-15T13:02:20;99633.72;;;16.15;43.74
66857;BME280;53766;50.280;19.160;2023-02-15T13:04:49;99635.41;;;16.16;43.84
66857;BME280;53766;50.280;19.160;2023-02-15T13:07:16;99630.41;;;16.13;43.85
66857;BME280;53766;50.280;19.160;2023-02-15T13:09:44;99629.41;;;16.14;43.91
66857;BME280;53766;50.280;19.160;2023-02-15T13:14:49;99626.75;;;16.14;43.91
66857;BME280;53766;50.280;19.160;2023-02-15T13:17:20;99619.75;;;16.13;43.90
66857;BME280;53766;50.280;19.160;2023-02-15T13:19:51;99626.75;;;16.14;43.96
66857;BME280;53766;50.280;19.160;2023-02-15T13:22:20;99618.59;;;16.15;43.84
66857;BME280;53766;50.280;19.160;2023-02-15T13:24:59;99615.28;;;16.13;43.94
66857;BME280;53766;50.280;19.160;2023-02-15T13:27:34;99610.81;;;16.14;43.85
66857;BME280;53766;50.280;19.160;2023-02-15T13:30:03;99610.81;;;16.14;43.91
66857;BME280;53766;50.280;19.160;2023-02-15T13:32:37;99605.50;;;16.14;43.73
66857;BME280;53766;50.280;19.160;2023-02-15T13:35:14;99603.81;;;16.13;43.97
66857;BME280;53766;50.280;19.160;2023-02-15T13:37:51;99599.31;;;16.13;43.85
66857;BME280;53766;50.280;19.160;2023-02-15T13:40:25;99602.84;;;16.14;43.83
66857;BME280;53766;50.280;19.160;2023-02-15T13:42:56;99601.84;;;16.15;43.84
66857;BME280;53766;50.280;19.160;2023-02-15T13:45:36;99600.19;;;16.14;43.75
66857;BME280;53766;50.280;19.160;2023-02-15T13:53:33;99599.84;;;16.17;43.86
66857;BME280;53766;50.280;19.160;2023-02-15T14:01:18;99598.53;;;16.21;43.79
66857;BME280;53766;50.280;19.160;2023-02-15T14:17:24;99575.97;;;16.25;43.53
66857;BME280;53766;50.280;19.160;2023-02-15T14:22:53;99574.94;;;16.26;43.39
66857;BME280;53766;50.280;19.160;2023-02-15T14:25:27;99572.28;;;16.26;43.54
66857;BME280;53766;50.280;19.160;2023-02-15T14:28:05;99566.97;;;16.26;43.53
66857;BME280;53766;50.280;19.160;2023-02-15T14:30:39;99566.97;;;16.26;43.45
66857;BME280;53766;50.280;19.160;2023-02-15T14:35:35;99566.66;;;16.29;43.37
66857;BME280;53766;50.280;19.160;2023-02-15T14:38:12;99555.38;;;16.27;43.35
66857;BME280;53766;50.280;19.160;2023-02-15T14:40:44;99566.00;;;16.27;43.37
66857;BME280;53766;50.280;19.160;2023-02-15T14:43:49;99559.66;;;16.28;43.28
66857;BME280;53766;50.280;19.160;2023-02-15T14:46:41;99570.31;;;16.28;43.40
66857;BME280;53766;50.280;19.160;2023-02-15T14:54:07;99563.00;;;16.30;43.22
66857;BME280;53766;50.280;19.160;2023-02-15T14:56:34;99558.69;;;16.29;43.37
66857;BME280;53766;50.280;19.160;2023-02-15T15:01:38;99555.69;;;16.32;43.43
66857;BME280;53766;50.280;19.160;2023-02-15T15:04:13;99561.00;;;16.32;43.45
66857;BME280;53766;50.280;19.160;2023-02-15T15:06:57;99555.69;;;16.32;43.44
66857;BME280;53766;50.280;19.160;2023-02-15T15:09:26;99551.38;;;16.31;43.44
66857;BME280;53766;50.280;19.160;2023-02-15T15:11:54;99547.06;;;16.30;43.39
66857;BME280;53766;50.280;19.160;2023-02-15T15:14:42;99554.03;;;16.31;43.47
66857;BME280;53766;50.280;19.160;2023-02-15T15:17:10;99552.38;;;16.30;43.51
66857;BME280;53766;50.280;19.160;2023-02-15T15:22:19;99552.22;;;16.32;43.59